createdAt,value
2022-11-01T00:02:07.435Z,15.50
2022-11-01T00:04:34.156Z,15.25
2022-11-01T00:07:00.941Z,15.34
2022-11-01T00:09:27.625Z,15.24
2022-11-01T00:11:54.344Z,15.08
2022-11-01T00:14:21.113Z,15.19
2022-11-01T00:16:48.687Z,15.05
2022-11-01T00:19:15.460Z,15.21
2022-11-01T00:21:42.092Z,15.17
2022-11-01T00:24:08.906Z,15.05
2022-11-01T00:26:35.668Z,15.15
2022-11-01T00:29:02.528Z,15.22
2022-11-01T00:31:29.685Z,15.65
2022-11-01T00:33:56.636Z,15.56
2022-11-01T00:36:23.363Z,15.60
2022-11-01T00:38:51.367Z,15.55
2022-11-01T00:41:19.443Z,15.61
2022-11-01T00:43:47.063Z,15.62
2022-11-01T00:46:14.100Z,15.23
2022-11-01T00:48:40.849Z,15.32
2022-11-01T00:51:08.053Z,15.26
2022-11-01T00:53:37.073Z,15.48
2022-11-01T00:56:08.511Z,15.48
2022-11-01T00:58:35.559Z,15.71
2022-11-01T01:01:04.296Z,15.54
2022-11-01T01:03:35.208Z,15.66
2022-11-01T01:06:01.965Z,15.61
2022-11-01T01:08:29.286Z,15.58
2022-11-01T01:10:55.899Z,15.48
2022-11-01T01:13:23.192Z,15.29
2022-11-01T01:15:49.829Z,15.37
2022-11-01T01:18:16.660Z,15.55
2022-11-01T01:20:43.612Z,15.35
2022-11-01T01:23:10.275Z,15.62
2022-11-01T01:25:40.264Z,15.55
2022-11-01T01:28:07.177Z,15.53
2022-11-01T01:30:33.813Z,15.61
2022-11-01T01:33:00.468Z,15.57
2022-11-01T01:35:27.134Z,15.58
2022-11-01T01:37:53.731Z,15.43
2022-11-01T01:40:20.309Z,15.61
2022-11-01T01:42:47.403Z,15.48
2022-11-01T01:45:31.123Z,15.44
2022-11-01T01:48:12.392Z,15.46
2022-11-01T01:50:54.217Z,15.54
2022-11-01T01:53:28.399Z,15.68
2022-11-01T01:56:07.278Z,15.55
2022-11-01T01:58:48.504Z,15.38
2022-11-01T02:01:15.269Z,15.53
2022-11-01T02:03:43.133Z,15.30
2022-11-01T02:09:00.662Z,15.29
2022-11-01T02:11:27.615Z,15.32
2022-11-01T02:13:55.899Z,15.57
2022-11-01T02:16:47.733Z,15.48
2022-11-01T02:19:26.793Z,15.44
2022-11-01T02:21:57.178Z,15.50
2022-11-01T02:24:50.496Z,15.59
2022-11-01T02:27:35.400Z,15.51
2022-11-01T02:30:11.568Z,15.45
2022-11-01T02:32:47.420Z,15.38
2022-11-01T02:35:17.120Z,15.59
2022-11-01T02:38:01.955Z,15.77
2022-11-01T02:40:49.291Z,15.51
2022-11-01T02:43:29.416Z,15.70
2022-11-01T02:45:57.577Z,15.60
2022-11-01T02:48:25.494Z,15.56
2022-11-01T02:50:57.212Z,15.53
2022-11-01T02:53:24.377Z,15.37
2022-11-01T02:55:53.067Z,15.50
2022-11-01T02:58:23.646Z,15.39
2022-11-01T03:00:50.430Z,15.39
2022-11-01T03:03:29.200Z,15.47
2022-11-01T03:06:05.028Z,15.30
2022-11-01T03:08:33.637Z,15.32
2022-11-01T03:11:16.790Z,15.22
2022-11-01T03:13:59.056Z,15.19
2022-11-01T03:16:29.528Z,15.19
2022-11-01T03:19:40.513Z,15.23
2022-11-01T03:22:15.786Z,15.17
2022-11-01T03:24:52.164Z,15.45
2022-11-01T03:27:34.828Z,15.09
2022-11-01T03:30:06.330Z,15.03
2022-11-01T03:32:40.815Z,15.08
2022-11-01T03:35:10.463Z,15.20
2022-11-01T03:37:41.004Z,15.18
2022-11-01T03:40:11.776Z,15.22
2022-11-01T03:42:41.240Z,15.29
2022-11-01T03:45:12.682Z,15.41
2022-11-01T03:47:40.600Z,15.28
2022-11-01T03:50:25.961Z,15.40
2022-11-01T03:52:53.009Z,15.35
2022-11-01T03:55:20.960Z,15.25
2022-11-01T03:57:58.763Z,15.60
2022-11-01T04:00:31.589Z,15.63
2022-11-01T04:02:59.306Z,15.31
2022-11-01T04:05:28.442Z,15.32
2022-11-01T04:07:55.717Z,15.34
2022-11-01T04:10:23.861Z,15.42
2022-11-01T04:12:51.388Z,15.42
2022-11-01T04:15:38.389Z,15.27
2022-11-01T04:18:31.268Z,15.05
2022-11-01T04:20:58.628Z,15.10
2022-11-01T04:23:25.223Z,15.13
2022-11-01T04:25:51.961Z,15.22
2022-11-01T04:28:18.557Z,15.27
2022-11-01T04:30:45.197Z,15.20
2022-11-01T04:33:11.825Z,15.28
2022-11-01T04:35:38.981Z,15.23
2022-11-01T04:38:06.441Z,15.20
2022-11-01T04:40:34.316Z,15.29
2022-11-01T04:43:01.421Z,15.13
2022-11-01T04:45:28.205Z,15.32
2022-11-01T04:48:02.528Z,15.43
2022-11-01T04:50:29.585Z,15.48
2022-11-01T04:52:58.282Z,15.50
2022-11-01T04:55:25.683Z,15.53
2022-11-01T04:57:52.337Z,15.23
2022-11-01T05:00:19.068Z,15.29
2022-11-01T05:02:45.742Z,15.19
2022-11-01T05:05:13.545Z,15.24
2022-11-01T05:07:40.184Z,15.34
2022-11-01T05:10:07.998Z,14.99
2022-11-01T05:12:35.037Z,15.07
2022-11-01T05:15:01.688Z,15.23
2022-11-01T05:17:30.012Z,15.04
2022-11-01T05:19:56.629Z,15.15
2022-11-01T05:22:23.247Z,15.00
2022-11-01T05:24:49.805Z,15.22
2022-11-01T05:27:16.466Z,15.14
2022-11-01T05:29:43.064Z,15.15
2022-11-01T05:32:09.861Z,15.12
2022-11-01T05:34:36.522Z,15.11
2022-11-01T05:37:03.109Z,15.17
2022-11-01T05:39:29.764Z,15.10
2022-11-01T05:41:59.840Z,15.01
2022-11-01T05:44:29.592Z,15.17
2022-11-01T05:46:56.327Z,15.24
2022-11-01T05:49:23.016Z,15.26
2022-11-01T05:51:49.645Z,15.30
2022-11-01T05:54:16.280Z,15.07
2022-11-01T05:56:42.967Z,15.20
2022-11-01T05:59:09.581Z,15.12
2022-11-01T06:01:36.230Z,15.10
2022-11-01T06:04:03.369Z,15.13
2022-11-01T06:06:30.519Z,15.09
2022-11-01T06:08:58.028Z,15.10
2022-11-01T06:11:26.634Z,15.14
2022-11-01T06:13:55.238Z,15.06
2022-11-01T06:16:22.658Z,15.00
2022-11-01T06:18:49.753Z,15.19
2022-11-01T06:21:16.569Z,15.13
2022-11-01T06:23:47.946Z,15.20
2022-11-01T06:26:14.622Z,15.21
2022-11-01T06:28:41.216Z,15.13
2022-11-01T06:31:07.834Z,15.14
2022-11-01T06:33:34.592Z,15.07
2022-11-01T06:36:01.913Z,15.04
2022-11-01T06:38:28.762Z,15.09
2022-11-01T06:40:55.604Z,15.11
2022-11-01T06:43:22.395Z,15.13
2022-11-01T06:45:49.106Z,15.11
2022-11-01T06:48:15.731Z,15.10
2022-11-01T06:50:42.316Z,15.05
2022-11-01T06:53:09.241Z,15.07
2022-11-01T06:55:36.036Z,15.17
2022-11-01T06:58:03.744Z,15.18
2022-11-01T07:00:31.580Z,15.20
2022-11-01T07:03:00.250Z,15.11
2022-11-01T07:05:30.379Z,15.17
2022-11-01T07:08:02.348Z,15.26
2022-11-01T07:10:29.608Z,15.14
2022-11-01T07:13:03.292Z,15.21
2022-11-01T07:15:30.970Z,15.10
2022-11-01T07:17:59.028Z,15.28
2022-11-01T07:20:27.335Z,15.21
2022-11-01T07:23:05.681Z,15.14
2022-11-01T07:25:33.269Z,15.27
2022-11-01T07:27:59.984Z,15.18
2022-11-01T07:30:27.616Z,15.23
2022-11-01T07:32:59.534Z,15.24
2022-11-01T07:35:27.283Z,15.22
2022-11-01T07:37:57.606Z,15.27
2022-11-01T07:40:27.593Z,15.20
2022-11-01T07:43:00.499Z,15.36
2022-11-01T07:45:29.342Z,15.40
2022-11-01T07:48:03.335Z,15.34
2022-11-01T07:50:31.586Z,15.28
2022-11-01T07:53:03.048Z,15.30
2022-11-01T07:55:30.608Z,15.35
2022-11-01T07:57:57.711Z,15.36
2022-11-01T08:00:28.025Z,15.35
2022-11-01T08:03:14.464Z,15.37
2022-11-01T08:05:44.205Z,15.33
2022-11-01T08:08:11.566Z,15.42
2022-11-01T08:10:39.010Z,15.40
2022-11-01T08:13:07.695Z,15.43
2022-11-01T08:15:35.079Z,15.45
2022-11-01T08:18:02.933Z,15.38
2022-11-01T08:20:30.066Z,15.44
2022-11-01T08:22:57.138Z,15.55
2022-11-01T08:25:24.334Z,15.54
2022-11-01T08:27:51.396Z,15.65
2022-11-01T08:30:20.253Z,15.62
2022-11-01T08:32:47.323Z,15.53
2022-11-01T08:35:14.173Z,15.52
2022-11-01T08:37:51.484Z,15.53
2022-11-01T08:40:19.062Z,15.46
2022-11-01T08:42:45.780Z,15.41
2022-11-01T08:45:12.664Z,15.47
2022-11-01T08:47:43.154Z,15.47
2022-11-01T08:50:13.766Z,15.55
2022-11-01T08:52:42.727Z,15.51
2022-11-01T08:55:11.646Z,15.53
2022-11-01T08:57:39.356Z,15.49
2022-11-01T09:00:11.415Z,15.57
2022-11-01T09:02:39.060Z,15.62
2022-11-01T09:05:09.398Z,15.53
2022-11-01T09:07:36.986Z,15.45
2022-11-01T09:10:04.718Z,15.55
2022-11-01T09:12:31.555Z,15.56
2022-11-01T09:14:58.397Z,15.47
2022-11-01T09:17:25.027Z,15.52
2022-11-01T09:19:51.740Z,15.48
2022-11-01T09:22:18.484Z,15.64
2022-11-01T09:24:45.394Z,15.71
2022-11-01T09:27:12.554Z,15.64
2022-11-01T09:29:39.448Z,15.65
2022-11-01T09:32:09.654Z,15.67
2022-11-01T09:34:36.349Z,15.84
2022-11-01T09:37:03.076Z,15.94
2022-11-01T09:39:29.785Z,16.07
2022-11-01T09:42:13.199Z,15.98
2022-11-01T09:44:46.209Z,16.04
2022-11-01T09:47:18.903Z,16.08
2022-11-01T09:49:48.852Z,16.18
2022-11-01T09:52:24.569Z,16.23
2022-11-01T09:54:51.768Z,16.13
2022-11-01T09:57:40.646Z,16.10
2022-11-01T10:00:15.097Z,16.27
2022-11-01T10:02:48.403Z,16.14
2022-11-01T10:05:46.988Z,16.20
2022-11-01T10:08:53.108Z,16.10
2022-11-01T10:12:01.667Z,16.03
2022-11-01T10:14:51.257Z,16.10
2022-11-01T10:17:49.415Z,16.29
2022-11-01T10:20:23.043Z,16.49
2022-11-01T10:22:50.750Z,16.53
2022-11-01T10:25:27.444Z,16.56
2022-11-01T10:28:21.626Z,16.59
2022-11-01T10:30:54.373Z,16.67
2022-11-01T10:33:46.550Z,16.69
2022-11-01T10:36:22.770Z,16.61
2022-11-01T10:39:53.184Z,16.61
2022-11-01T10:42:09.063Z,16.57
2022-11-01T10:44:42.569Z,16.74
2022-11-01T10:47:16.246Z,17.04
2022-11-01T10:50:06.586Z,17.22
2022-11-01T10:52:59.344Z,17.21
2022-11-01T10:55:32.945Z,17.43
2022-11-01T10:58:19.585Z,17.40
2022-11-01T11:00:47.140Z,17.63
2022-11-01T11:03:21.873Z,17.75
2022-11-01T11:05:52.135Z,17.81
2022-11-01T11:08:24.607Z,17.85
2022-11-01T11:10:53.178Z,17.75
2022-11-01T11:13:25.743Z,17.25
2022-11-01T11:16:01.557Z,17.32
2022-11-01T11:18:33.885Z,17.37
2022-11-01T11:21:12.129Z,17.48
2022-11-01T11:23:46.073Z,17.50
2022-11-01T11:26:16.750Z,17.32
2022-11-01T11:28:48.762Z,17.43
2022-11-01T11:31:22.925Z,17.33
2022-11-01T11:34:22.326Z,17.27
2022-11-01T11:36:49.942Z,17.19
2022-11-01T11:39:28.756Z,17.44
2022-11-01T11:42:15.775Z,17.15
2022-11-01T11:44:45.849Z,17.13
2022-11-01T11:47:21.409Z,17.29
2022-11-01T11:49:50.154Z,17.21
2022-11-01T11:52:20.070Z,17.06
2022-11-01T11:54:47.684Z,17.21
2022-11-01T11:57:24.844Z,17.18
2022-11-01T11:59:55.139Z,17.26
2022-11-01T12:02:27.612Z,17.31
2022-11-01T12:05:04.236Z,17.36
2022-11-01T12:07:37.686Z,17.40
2022-11-01T12:10:07.357Z,17.55
2022-11-01T12:12:40.536Z,17.66
2022-11-01T12:15:30.070Z,17.56
2022-11-01T12:18:11.432Z,17.63
2022-11-01T12:20:41.474Z,17.72
2022-11-01T12:23:20.810Z,17.69
2022-11-01T12:25:50.168Z,17.64
2022-11-01T12:28:53.639Z,17.62
2022-11-01T12:31:22.185Z,17.73
2022-11-01T12:33:56.219Z,17.57
2022-11-01T12:36:30.538Z,17.55
2022-11-01T12:39:12.839Z,17.40
2022-11-01T12:41:52.800Z,17.42
2022-11-01T12:44:36.901Z,17.36
2022-11-01T12:47:10.780Z,17.39
2022-11-01T12:49:55.683Z,17.34
2022-11-01T12:52:37.489Z,17.35
2022-11-01T12:55:41.275Z,17.32
2022-11-01T12:58:18.992Z,17.34
2022-11-01T13:01:11.421Z,17.36
2022-11-01T13:04:04.957Z,17.50
2022-11-01T13:06:58.163Z,17.38
2022-11-01T13:09:53.847Z,17.30
2022-11-01T13:12:42.134Z,17.29
2022-11-01T13:15:18.261Z,17.42
2022-11-01T13:18:01.754Z,17.42
2022-11-01T13:20:47.163Z,17.49
2022-11-01T13:23:36.356Z,17.45
2022-11-01T13:26:26.365Z,17.47
2022-11-01T13:29:28.518Z,17.51
2022-11-01T13:31:58.970Z,17.56
2022-11-01T13:34:45.755Z,17.64
2022-11-01T13:37:29.945Z,17.64
2022-11-01T13:40:07.857Z,17.68
2022-11-01T13:42:39.841Z,17.69
2022-11-01T13:45:12.484Z,17.64
2022-11-01T13:47:47.884Z,17.69
2022-11-01T13:50:44.688Z,17.80
2022-11-01T13:53:22.182Z,17.81
2022-11-01T13:55:57.355Z,17.94
2022-11-01T13:58:24.951Z,17.96
2022-11-01T14:00:55.534Z,17.85
2022-11-01T14:03:31.492Z,17.97
2022-11-01T14:06:11.619Z,18.13
2022-11-01T14:08:49.116Z,18.07
2022-11-01T14:11:51.455Z,18.09
2022-11-01T14:14:33.286Z,18.13
2022-11-01T14:17:15.794Z,18.05
2022-11-01T14:19:43.527Z,17.91
2022-11-01T14:22:22.093Z,18.06
2022-11-01T14:25:16.466Z,17.97
2022-11-01T14:27:50.403Z,18.01
2022-11-01T14:30:26.420Z,18.20
2022-11-01T14:32:59.547Z,18.18
2022-11-01T14:35:29.431Z,18.40
2022-11-01T14:38:02.848Z,18.39
2022-11-01T14:40:50.218Z,18.30
2022-11-01T14:43:33.201Z,18.32
2022-11-01T14:46:08.822Z,18.44
2022-11-01T14:48:47.879Z,18.15
2022-11-01T14:51:14.519Z,18.04
2022-11-01T14:53:42.352Z,17.89
2022-11-01T14:56:20.139Z,17.79
2022-11-01T14:58:48.861Z,17.76
2022-11-01T15:01:18.818Z,17.68
2022-11-01T15:04:00.044Z,17.59
2022-11-01T15:06:32.535Z,17.48
2022-11-01T15:09:04.164Z,17.35
2022-11-01T15:11:34.432Z,17.32
2022-11-01T15:14:07.415Z,17.25
2022-11-01T15:16:35.946Z,17.25
2022-11-01T15:19:14.844Z,17.16
2022-11-01T15:21:47.266Z,17.16
2022-11-01T15:24:20.295Z,17.15
2022-11-01T15:26:47.187Z,17.02
2022-11-01T15:29:18.157Z,16.89
2022-11-01T15:31:50.694Z,16.92
2022-11-01T15:34:29.817Z,16.95
2022-11-01T15:36:56.801Z,16.97
2022-11-01T15:39:26.022Z,16.98
2022-11-01T15:41:55.136Z,16.86
2022-11-01T15:44:30.621Z,16.73
2022-11-01T15:47:00.480Z,16.62
2022-11-01T15:49:32.588Z,16.53
2022-11-01T15:52:05.573Z,16.45
2022-11-01T15:54:41.937Z,16.49
2022-11-01T15:57:21.129Z,16.48
2022-11-01T15:59:52.010Z,16.45
2022-11-01T16:02:45.340Z,16.25
2022-11-01T16:05:16.358Z,16.22
2022-11-01T16:07:47.093Z,16.12
2022-11-01T16:10:21.678Z,16.20
2022-11-01T16:12:49.792Z,16.16
2022-11-01T16:15:31.423Z,16.28
2022-11-01T16:18:00.300Z,16.21
2022-11-01T16:20:43.138Z,16.21
2022-11-01T16:23:25.371Z,16.28
2022-11-01T16:26:04.494Z,16.25
2022-11-01T16:28:39.515Z,16.18
2022-11-01T16:31:23.591Z,16.14
2022-11-01T16:33:50.330Z,16.14
2022-11-01T16:36:20.125Z,15.99
2022-11-01T16:38:54.040Z,15.95
2022-11-01T16:41:40.934Z,15.91
2022-11-01T16:44:18.647Z,16.13
2022-11-01T16:46:46.771Z,16.10
2022-11-01T16:49:23.222Z,15.94
2022-11-01T16:51:51.297Z,16.08
2022-11-01T16:54:18.069Z,16.05
2022-11-01T16:56:51.408Z,16.01
2022-11-01T16:59:27.041Z,15.85
2022-11-01T17:01:58.354Z,15.76
2022-11-01T17:04:29.756Z,15.79
2022-11-01T17:06:59.730Z,15.86
2022-11-01T17:09:30.837Z,15.81
2022-11-01T17:11:57.460Z,15.80
2022-11-01T17:14:24.127Z,15.81
2022-11-01T17:16:52.648Z,15.71
2022-11-01T17:19:24.456Z,15.45
2022-11-01T17:21:52.287Z,15.32
2022-11-01T17:24:22.305Z,15.45
2022-11-01T17:26:50.181Z,15.54
2022-11-01T17:29:16.824Z,15.37
2022-11-01T17:31:43.467Z,15.36
2022-11-01T17:34:10.172Z,15.36
2022-11-01T17:36:40.230Z,15.23
2022-11-01T17:39:10.210Z,15.32
2022-11-01T17:41:37.158Z,15.29
2022-11-01T17:44:03.894Z,15.32
2022-11-01T17:46:30.534Z,15.25
2022-11-01T17:48:57.115Z,15.29
2022-11-01T17:51:23.782Z,15.13
2022-11-01T17:53:57.261Z,15.12
2022-11-01T17:56:24.659Z,15.11
2022-11-01T17:58:53.477Z,15.22
2022-11-01T18:01:21.037Z,15.41
2022-11-01T18:03:47.881Z,15.17
2022-11-01T18:06:14.835Z,15.05
2022-11-01T18:08:47.113Z,14.99
2022-11-01T18:11:32.510Z,14.98
2022-11-01T18:14:03.993Z,15.00
2022-11-01T18:16:49.344Z,14.97
2022-11-01T18:19:15.979Z,14.92
2022-11-01T18:22:04.604Z,15.01
2022-11-01T18:24:53.492Z,14.99
2022-11-01T18:27:27.972Z,14.84
2022-11-01T18:29:54.710Z,14.80
2022-11-01T18:32:35.822Z,14.78
2022-11-01T18:35:38.319Z,14.70
2022-11-01T18:38:17.967Z,15.01
2022-11-01T18:41:01.637Z,14.71
2022-11-01T18:43:32.230Z,14.62
2022-11-01T18:48:46.223Z,14.57
2022-11-01T18:51:28.309Z,14.47
2022-11-01T18:54:19.874Z,14.48
2022-11-01T18:56:53.575Z,14.51
2022-11-01T18:59:27.125Z,14.61
2022-11-01T19:01:59.238Z,14.87
2022-11-01T19:04:29.931Z,14.65
2022-11-01T19:07:06.005Z,14.77
2022-11-01T19:09:39.495Z,15.14
2022-11-01T19:12:27.813Z,14.79
2022-11-01T19:15:05.495Z,14.61
2022-11-01T19:17:40.432Z,14.70
2022-11-01T19:20:23.078Z,14.54
2022-11-01T19:22:49.993Z,14.55
2022-11-01T19:25:22.681Z,14.50
2022-11-01T19:27:52.841Z,14.40
2022-11-01T19:30:24.641Z,14.41
2022-11-01T19:32:53.710Z,14.39
2022-11-01T19:35:22.761Z,14.31
2022-11-01T19:37:56.233Z,14.23
2022-11-01T19:40:36.003Z,14.25
2022-11-01T19:43:15.678Z,14.17
2022-11-01T19:46:05.036Z,14.11
2022-11-01T19:48:34.905Z,14.03
2022-11-01T19:51:01.664Z,14.03
2022-11-01T19:53:40.056Z,14.05
2022-11-01T19:56:10.381Z,14.06
2022-11-01T19:58:53.908Z,14.15
2022-11-01T20:01:33.096Z,14.09
2022-11-01T20:04:11.050Z,13.96
2022-11-01T20:06:47.089Z,13.87
2022-11-01T20:09:23.804Z,13.89
2022-11-01T20:11:53.238Z,13.90
2022-11-01T20:14:20.825Z,13.76
2022-11-01T20:16:49.906Z,13.63
2022-11-01T20:19:20.715Z,13.59
2022-11-01T20:21:51.404Z,13.70
2022-11-01T20:24:19.528Z,13.60
2022-11-01T20:26:47.628Z,13.73
2022-11-01T20:29:15.555Z,13.68
2022-11-01T20:31:43.533Z,13.59
2022-11-01T20:34:14.114Z,13.61
2022-11-01T20:36:41.034Z,13.76
2022-11-01T20:39:13.172Z,14.09
2022-11-01T20:41:44.082Z,14.11
2022-11-01T20:44:12.261Z,13.85
2022-11-01T20:46:39.119Z,13.69
2022-11-01T20:49:10.764Z,13.58
2022-11-01T20:51:41.516Z,13.40
2022-11-01T20:54:13.895Z,13.31
2022-11-01T20:56:53.580Z,13.50
2022-11-01T20:59:21.517Z,13.86
2022-11-01T21:01:49.195Z,13.96
2022-11-01T21:04:17.408Z,14.19
2022-11-01T21:06:45.638Z,13.98
2022-11-01T21:09:37.627Z,13.65
2022-11-01T21:12:40.054Z,13.70
2022-11-01T21:15:27.380Z,13.62
2022-11-01T21:18:01.649Z,13.43
2022-11-01T21:20:29.382Z,13.50
2022-11-01T21:23:01.947Z,13.57
2022-11-01T21:25:29.174Z,13.41
2022-11-01T21:27:56.200Z,13.48
2022-11-01T21:30:23.019Z,13.34
2022-11-01T21:32:51.224Z,13.51
2022-11-01T21:35:20.928Z,13.53
2022-11-01T21:37:50.228Z,13.56
2022-11-01T21:40:28.915Z,13.34
2022-11-01T21:42:57.409Z,13.42
2022-11-01T21:45:33.452Z,13.46
2022-11-01T21:48:18.740Z,13.74
2022-11-01T21:50:45.379Z,13.45
2022-11-01T21:53:12.196Z,13.45
2022-11-01T21:55:38.821Z,13.63
2022-11-01T21:58:05.451Z,13.58
2022-11-01T22:00:32.073Z,13.29
2022-11-01T22:02:58.691Z,13.17
2022-11-01T22:05:25.301Z,13.36
2022-11-01T22:07:51.930Z,13.28
2022-11-01T22:10:18.563Z,13.54
2022-11-01T22:12:45.461Z,13.60
2022-11-01T22:15:12.112Z,13.36
2022-11-01T22:17:39.905Z,13.21
2022-11-01T22:20:06.824Z,13.42
2022-11-01T22:22:33.412Z,13.22
2022-11-01T22:25:00.039Z,13.25
2022-11-01T22:27:26.614Z,13.08
2022-11-01T22:29:53.178Z,13.29
2022-11-01T22:32:19.749Z,13.34
2022-11-01T22:34:46.390Z,13.42
2022-11-01T22:37:13.365Z,13.30
2022-11-01T22:39:40.947Z,13.24
2022-11-01T22:42:13.101Z,13.16
2022-11-01T22:44:40.696Z,13.41
2022-11-01T22:47:24.908Z,13.24
2022-11-01T22:49:54.001Z,13.03
2022-11-01T22:52:39.381Z,13.20
2022-11-01T22:55:12.559Z,13.25
2022-11-01T22:58:24.252Z,13.42
2022-11-01T23:00:52.103Z,13.37
2022-11-01T23:03:41.999Z,13.36
2022-11-01T23:06:29.018Z,13.26
2022-11-01T23:09:11.037Z,13.15
2022-11-01T23:11:57.103Z,13.21
2022-11-01T23:14:39.054Z,13.08
2022-11-01T23:17:35.540Z,13.00
2022-11-01T23:20:03.596Z,12.91
2022-11-01T23:22:35.800Z,12.83
2022-11-01T23:25:04.710Z,12.77
2022-11-01T23:27:31.817Z,12.94
2022-11-01T23:30:01.408Z,12.98
2022-11-01T23:32:34.380Z,12.94
2022-11-01T23:35:19.241Z,13.24
2022-11-01T23:37:46.668Z,13.11
2022-11-01T23:40:16.233Z,13.03
2022-11-01T23:42:44.148Z,13.08
2022-11-01T23:45:34.561Z,13.05
2022-11-01T23:48:02.302Z,13.06
2022-11-01T23:50:32.981Z,13.27
2022-11-01T23:53:12.271Z,13.15
2022-11-01T23:55:50.361Z,13.03
